sensor_id;sensor_type;location;lat;lon;timestamp;P1;durP1;ratioP1;P2;durP2;ratioP2
23743;SDS011;12052;53.478;10.182;2023-04-25T00:01:03;7.55;;;3.03;;
23743;SDS011;12052;53.478;10.182;2023-04-25T00:03:34;7.90;;;3.22;;
23743;SDS011;12052;53.478;10.182;2023-04-25T00:06:00;9.98;;;3.60;;
23743;SDS011;12052;53.478;10.182;2023-04-25T00:08:29;10.77;;;3.38;;
23743;SDS011;12052;53.478;10.182;2023-04-25T00:10:56;9.27;;;3.10;;
23743;SDS011;12052;53.478;10.182;2023-04-25T00:13:22;5.00;;;3.13;;
23743;SDS011;12052;53.478;10.182;2023-04-25T00:15:48;7.35;;;3.33;;
23743;SDS011;12052;53.478;10.182;2023-04-25T00:18:14;6.60;;;3.28;;
23743;SDS011;12052;53.478;10.182;2023-04-25T00:20:40;5.68;;;3.22;;
23743;SDS011;12052;53.478;10.182;2023-04-25T00:23:09;10.10;;;3.20;;
23743;SDS011;12052;53.478;10.182;2023-04-25T00:25:35;5.43;;;3.17;;
23743;SDS011;12052;53.478;10.182;2023-04-25T00:28:01;9.05;;;3.45;;
23743;SDS011;12052;53.478;10.182;2023-04-25T00:30:26;9.93;;;3.72;;
23743;SDS011;12052;53.478;10.182;2023-04-25T00:32:52;7.00;;;4.15;;
23743;SDS011;12052;53.478;10.182;2023-04-25T00:35:18;11.50;;;3.90;;
23743;SDS011;12052;53.478;10.182;2023-04-25T00:37:43;9.93;;;4.25;;
23743;SDS011;12052;53.478;10.182;2023-04-25T00:40:10;15.45;;;3.85;;
23743;SDS011;12052;53.478;10.182;2023-04-25T00:42:35;7.22;;;3.53;;
23743;SDS011;12052;53.478;10.182;2023-04-25T00:45:03;19.23;;;3.85;;
23743;SDS011;12052;53.478;10.182;2023-04-25T00:47:30;5.30;;;2.90;;
23743;SDS011;12052;53.478;10.182;2023-04-25T00:49:57;12.40;;;3.15;;
23743;SDS011;12052;53.478;10.182;2023-04-25T00:52:23;20.30;;;3.95;;
23743;SDS011;12052;53.478;10.182;2023-04-25T00:54:49;20.88;;;4.18;;
23743;SDS011;12052;53.478;10.182;2023-04-25T00:57:15;22.65;;;3.45;;
23743;SDS011;12052;53.478;10.182;2023-04-25T00:59:41;19.98;;;3.85;;
23743;SDS011;12052;53.478;10.182;2023-04-25T01:02:11;14.35;;;2.90;;
23743;SDS011;12052;53.478;10.182;2023-04-25T01:04:39;11.52;;;3.33;;
23743;SDS011;12052;53.478;10.182;2023-04-25T01:07:04;20.55;;;3.67;;
23743;SDS011;12052;53.478;10.182;2023-04-25T01:09:30;14.60;;;3.08;;
23743;SDS011;12052;53.478;10.182;2023-04-25T01:11:58;15.73;;;2.95;;
23743;SDS011;12052;53.478;10.182;2023-04-25T01:14:25;33.17;;;4.60;;
23743;SDS011;12052;53.478;10.182;2023-04-25T01:16:50;23.77;;;3.33;;
23743;SDS011;12052;53.478;10.182;2023-04-25T01:19:17;27.60;;;4.18;;
23743;SDS011;12052;53.478;10.182;2023-04-25T01:21:44;26.60;;;4.05;;
23743;SDS011;12052;53.478;10.182;2023-04-25T01:24:10;19.15;;;3.70;;
23743;SDS011;12052;53.478;10.182;2023-04-25T01:26:36;15.60;;;3.50;;
23743;SDS011;12052;53.478;10.182;2023-04-25T01:29:06;15.00;;;3.60;;
23743;SDS011;12052;53.478;10.182;2023-04-25T01:31:32;18.55;;;3.22;;
23743;SDS011;12052;53.478;10.182;2023-04-25T01:33:59;18.67;;;3.17;;
23743;SDS011;12052;53.478;10.182;2023-04-25T01:36:25;18.55;;;3.58;;
23743;SDS011;12052;53.478;10.182;2023-04-25T01:38:52;22.55;;;3.80;;
23743;SDS011;12052;53.478;10.182;2023-04-25T01:41:18;22.33;;;4.60;;
23743;SDS011;12052;53.478;10.182;2023-04-25T01:43:44;20.42;;;3.90;;
23743;SDS011;12052;53.478;10.182;2023-04-25T01:46:10;34.88;;;4.47;;
23743;SDS011;12052;53.478;10.182;2023-04-25T01:48:37;19.98;;;4.13;;
23743;SDS011;12052;53.478;10.182;2023-04-25T01:51:02;16.50;;;4.03;;
23743;SDS011;12052;53.478;10.182;2023-04-25T01:53:28;17.23;;;3.35;;
23743;SDS011;12052;53.478;10.182;2023-04-25T01:55:54;22.63;;;3.97;;
23743;SDS011;12052;53.478;10.182;2023-04-25T01:58:20;31.90;;;3.38;;
23743;SDS011;12052;53.478;10.182;2023-04-25T02:00:46;18.73;;;4.10;;
23743;SDS011;12052;53.478;10.182;2023-04-25T02:03:11;32.00;;;4.25;;
23743;SDS011;12052;53.478;10.182;2023-04-25T02:05:37;21.52;;;3.33;;
23743;SDS011;12052;53.478;10.182;2023-04-25T02:08:04;32.67;;;4.45;;
23743;SDS011;12052;53.478;10.182;2023-04-25T02:10:31;17.15;;;3.10;;
23743;SDS011;12052;53.478;10.182;2023-04-25T02:12:57;20.27;;;3.65;;
23743;SDS011;12052;53.478;10.182;2023-04-25T02:15:22;17.73;;;3.33;;
23743;SDS011;12052;53.478;10.182;2023-04-25T02:17:48;23.23;;;4.88;;
23743;SDS011;12052;53.478;10.182;2023-04-25T02:20:14;20.88;;;3.65;;
23743;SDS011;12052;53.478;10.182;2023-04-25T02:22:41;24.67;;;4.00;;
23743;SDS011;12052;53.478;10.182;2023-04-25T02:25:07;23.95;;;3.33;;
23743;SDS011;12052;53.478;10.182;2023-04-25T02:27:34;19.90;;;3.92;;
23743;SDS011;12052;53.478;10.182;2023-04-25T02:30:00;18.42;;;3.70;;
23743;SDS011;12052;53.478;10.182;2023-04-25T02:32:26;25.52;;;4.43;;
23743;SDS011;12052;53.478;10.182;2023-04-25T02:34:52;23.92;;;3.45;;
23743;SDS011;12052;53.478;10.182;2023-04-25T02:37:18;20.70;;;4.50;;
23743;SDS011;12052;53.478;10.182;2023-04-25T02:39:44;25.05;;;3.67;;
23743;SDS011;12052;53.478;10.182;2023-04-25T02:42:09;12.63;;;3.28;;
23743;SDS011;12052;53.478;10.182;2023-04-25T02:44:35;22.08;;;3.85;;
23743;SDS011;12052;53.478;10.182;2023-04-25T02:47:00;10.98;;;2.67;;
23743;SDS011;12052;53.478;10.182;2023-04-25T02:49:26;26.55;;;3.70;;
23743;SDS011;12052;53.478;10.182;2023-04-25T02:51:51;20.42;;;4.03;;
23743;SDS011;12052;53.478;10.182;2023-04-25T02:54:17;27.50;;;4.10;;
23743;SDS011;12052;53.478;10.182;2023-04-25T02:56:43;24.30;;;4.13;;
23743;SDS011;12052;53.478;10.182;2023-04-25T02:59:08;16.10;;;3.72;;
23743;SDS011;12052;53.478;10.182;2023-04-25T03:01:34;19.63;;;3.10;;
23743;SDS011;12052;53.478;10.182;2023-04-25T03:03:59;24.85;;;3.72;;
23743;SDS011;12052;53.478;10.182;2023-04-25T03:06:25;16.08;;;2.97;;
23743;SDS011;12052;53.478;10.182;2023-04-25T03:08:50;11.07;;;3.08;;
23743;SDS011;12052;53.478;10.182;2023-04-25T03:11:16;13.07;;;3.15;;
23743;SDS011;12052;53.478;10.182;2023-04-25T03:13:42;18.05;;;3.58;;
23743;SDS011;12052;53.478;10.182;2023-04-25T03:16:07;23.35;;;4.00;;
23743;SDS011;12052;53.478;10.182;2023-04-25T03:18:33;17.77;;;2.95;;
23743;SDS011;12052;53.478;10.182;2023-04-25T03:20:58;24.02;;;3.03;;
23743;SDS011;12052;53.478;10.182;2023-04-25T03:23:24;21.63;;;3.78;;
23743;SDS011;12052;53.478;10.182;2023-04-25T03:25:54;26.98;;;3.53;;
23743;SDS011;12052;53.478;10.182;2023-04-25T03:28:22;19.30;;;3.70;;
23743;SDS011;12052;53.478;10.182;2023-04-25T03:30:48;15.77;;;3.17;;
23743;SDS011;12052;53.478;10.182;2023-04-25T03:33:13;17.23;;;3.42;;
23743;SDS011;12052;53.478;10.182;2023-04-25T03:35:39;21.58;;;3.67;;
23743;SDS011;12052;53.478;10.182;2023-04-25T03:38:05;20.52;;;3.22;;
23743;SDS011;12052;53.478;10.182;2023-04-25T03:40:30;31.23;;;3.50;;
23743;SDS011;12052;53.478;10.182;2023-04-25T03:42:56;11.55;;;2.78;;
23743;SDS011;12052;53.478;10.182;2023-04-25T03:45:21;18.83;;;3.55;;
23743;SDS011;12052;53.478;10.182;2023-04-25T03:47:47;18.30;;;3.03;;
23743;SDS011;12052;53.478;10.182;2023-04-25T03:50:12;18.60;;;2.72;;
23743;SDS011;12052;53.478;10.182;2023-04-25T03:52:38;23.60;;;3.78;;
23743;SDS011;12052;53.478;10.182;2023-04-25T03:55:04;16.65;;;3.35;;
23743;SDS011;12052;53.478;10.182;2023-04-25T03:57:30;18.45;;;3.42;;
23743;SDS011;12052;53.478;10.182;2023-04-25T03:59:55;25.92;;;3.13;;
23743;SDS011;12052;53.478;10.182;2023-04-25T04:02:21;14.50;;;2.75;;
23743;SDS011;12052;53.478;10.182;2023-04-25T04:04:47;17.10;;;2.92;;
23743;SDS011;12052;53.478;10.182;2023-04-25T04:07:12;29.70;;;3.85;;
23743;SDS011;12052;53.478;10.182;2023-04-25T04:09:38;14.07;;;2.70;;
23743;SDS011;12052;53.478;10.182;2023-04-25T04:12:04;15.38;;;3.00;;
23743;SDS011;12052;53.478;10.182;2023-04-25T04:14:30;16.42;;;2.88;;
23743;SDS011;12052;53.478;10.182;2023-04-25T04:16:55;17.38;;;3.30;;
23743;SDS011;12052;53.478;10.182;2023-04-25T04:19:21;14.68;;;2.70;;
23743;SDS011;12052;53.478;10.182;2023-04-25T04:21:46;14.60;;;3.08;;
23743;SDS011;12052;53.478;10.182;2023-04-25T04:24:12;22.15;;;3.90;;
23743;SDS011;12052;53.478;10.182;2023-04-25T04:26:38;13.23;;;2.72;;
23743;SDS011;12052;53.478;10.182;2023-04-25T04:29:04;22.45;;;3.45;;
23743;SDS011;12052;53.478;10.182;2023-04-25T04:31:30;21.20;;;3.40;;
23743;SDS011;12052;53.478;10.182;2023-04-25T04:33:55;14.50;;;3.20;;
23743;SDS011;12052;53.478;10.182;2023-04-25T04:36:21;19.58;;;2.72;;
23743;SDS011;12052;53.478;10.182;2023-04-25T04:38:48;15.13;;;2.33;;
23743;SDS011;12052;53.478;10.182;2023-04-25T04:41:14;6.50;;;2.50;;
23743;SDS011;12052;53.478;10.182;2023-04-25T04:43:39;14.57;;;2.30;;
23743;SDS011;12052;53.478;10.182;2023-04-25T04:46:05;16.50;;;2.67;;
23743;SDS011;12052;53.478;10.182;2023-04-25T04:48:31;15.43;;;2.53;;
23743;SDS011;12052;53.478;10.182;2023-04-25T04:50:59;13.95;;;3.08;;
23743;SDS011;12052;53.478;10.182;2023-04-25T04:53:25;14.82;;;2.85;;
23743;SDS011;12052;53.478;10.182;2023-04-25T04:55:51;25.08;;;2.95;;
23743;SDS011;12052;53.478;10.182;2023-04-25T04:58:17;22.73;;;3.15;;
23743;SDS011;12052;53.478;10.182;2023-04-25T05:00:43;11.88;;;2.47;;
23743;SDS011;12052;53.478;10.182;2023-04-25T05:03:09;15.70;;;2.53;;
23743;SDS011;12052;53.478;10.182;2023-04-25T05:05:36;17.05;;;3.03;;
23743;SDS011;12052;53.478;10.182;2023-04-25T05:08:04;22.42;;;2.88;;
23743;SDS011;12052;53.478;10.182;2023-04-25T05:10:31;16.95;;;2.50;;
23743;SDS011;12052;53.478;10.182;2023-04-25T05:12:56;23.80;;;2.97;;
23743;SDS011;12052;53.478;10.182;2023-04-25T05:15:22;13.95;;;2.55;;
23743;SDS011;12052;53.478;10.182;2023-04-25T05:17:47;17.30;;;2.90;;
23743;SDS011;12052;53.478;10.182;2023-04-25T05:20:13;14.02;;;2.90;;
23743;SDS011;12052;53.478;10.182;2023-04-25T05:22:39;15.23;;;2.70;;
23743;SDS011;12052;53.478;10.182;2023-04-25T05:25:06;10.85;;;2.45;;
23743;SDS011;12052;53.478;10.182;2023-04-25T05:27:33;15.40;;;3.03;;
23743;SDS011;12052;53.478;10.182;2023-04-25T05:29:58;21.33;;;2.85;;
23743;SDS011;12052;53.478;10.182;2023-04-25T05:32:24;13.95;;;2.97;;
23743;SDS011;12052;53.478;10.182;2023-04-25T05:34:50;11.40;;;2.70;;
23743;SDS011;12052;53.478;10.182;2023-04-25T05:37:16;18.00;;;2.47;;
23743;SDS011;12052;53.478;10.182;2023-04-25T05:39:42;14.27;;;2.45;;
23743;SDS011;12052;53.478;10.182;2023-04-25T05:42:08;21.85;;;3.10;;
23743;SDS011;12052;53.478;10.182;2023-04-25T05:44:33;18.42;;;2.70;;
23743;SDS011;12052;53.478;10.182;2023-04-25T05:46:59;21.48;;;2.92;;
23743;SDS011;12052;53.478;10.182;2023-04-25T05:49:24;16.65;;;3.13;;
23743;SDS011;12052;53.478;10.182;2023-04-25T05:51:50;15.77;;;2.35;;
23743;SDS011;12052;53.478;10.182;2023-04-25T05:54:16;14.77;;;2.83;;
23743;SDS011;12052;53.478;10.182;2023-04-25T05:56:41;14.75;;;2.92;;
23743;SDS011;12052;53.478;10.182;2023-04-25T05:59:07;18.17;;;2.97;;
23743;SDS011;12052;53.478;10.182;2023-04-25T06:01:32;24.33;;;2.50;;
23743;SDS011;12052;53.478;10.182;2023-04-25T06:03:58;11.27;;;2.38;;
23743;SDS011;12052;53.478;10.182;2023-04-25T06:06:23;10.60;;;2.50;;
23743;SDS011;12052;53.478;10.182;2023-04-25T06:08:49;16.65;;;3.13;;
23743;SDS011;12052;53.478;10.182;2023-04-25T06:11:15;18.27;;;2.70;;
23743;SDS011;12052;53.478;10.182;2023-04-25T06:13:42;19.25;;;2.83;;
23743;SDS011;12052;53.478;10.182;2023-04-25T06:16:08;17.65;;;2.95;;
23743;SDS011;12052;53.478;10.182;2023-04-25T06:18:33;10.05;;;2.45;;
23743;SDS011;12052;53.478;10.182;2023-04-25T06:20:59;14.27;;;2.88;;
23743;SDS011;12052;53.478;10.182;2023-04-25T06:23:25;21.92;;;2.85;;
23743;SDS011;12052;53.478;10.182;2023-04-25T06:25:51;16.45;;;2.65;;
23743;SDS011;12052;53.478;10.182;2023-04-25T06:28:16;13.25;;;2.88;;
23743;SDS011;12052;53.478;10.182;2023-04-25T06:30:42;10.50;;;2.55;;
23743;SDS011;12052;53.478;10.182;2023-04-25T06:33:07;11.90;;;2.17;;
23743;SDS011;12052;53.478;10.182;2023-04-25T06:35:33;15.77;;;2.55;;
23743;SDS011;12052;53.478;10.182;2023-04-25T06:37:59;10.45;;;2.20;;
23743;SDS011;12052;53.478;10.182;2023-04-25T06:40:25;12.90;;;2.17;;
23743;SDS011;12052;53.478;10.182;2023-04-25T06:42:50;16.33;;;2.67;;
23743;SDS011;12052;53.478;10.182;2023-04-25T06:45:16;11.43;;;2.28;;
23743;SDS011;12052;53.478;10.182;2023-04-25T06:47:42;10.25;;;2.17;;
23743;SDS011;12052;53.478;10.182;2023-04-25T06:50:08;19.65;;;2.30;;
23743;SDS011;12052;53.478;10.182;2023-04-25T06:52:34;17.70;;;2.58;;
23743;SDS011;12052;53.478;10.182;2023-04-25T06:54:59;12.70;;;2.83;;
23743;SDS011;12052;53.478;10.182;2023-04-25T06:57:25;10.18;;;2.03;;
23743;SDS011;12052;53.478;10.182;2023-04-25T06:59:50;11.23;;;2.28;;
23743;SDS011;12052;53.478;10.182;2023-04-25T07:02:16;15.30;;;2.47;;
23743;SDS011;12052;53.478;10.182;2023-04-25T07:04:42;14.93;;;3.42;;
23743;SDS011;12052;53.478;10.182;2023-04-25T07:07:07;8.18;;;1.80;;
23743;SDS011;12052;53.478;10.182;2023-04-25T07:09:33;11.05;;;2.35;;
23743;SDS011;12052;53.478;10.182;2023-04-25T07:11:59;11.13;;;2.10;;
23743;SDS011;12052;53.478;10.182;2023-04-25T07:14:26;15.75;;;2.40;;
23743;SDS011;12052;53.478;10.182;2023-04-25T07:16:52;11.60;;;2.13;;
23743;SDS011;12052;53.478;10.182;2023-04-25T07:19:18;12.27;;;2.10;;
23743;SDS011;12052;53.478;10.182;2023-04-25T07:21:43;13.27;;;2.63;;
23743;SDS011;12052;53.478;10.182;2023-04-25T07:24:09;12.02;;;2.45;;
23743;SDS011;12052;53.478;10.182;2023-04-25T07:26:34;9.38;;;2.22;;
23743;SDS011;12052;53.478;10.182;2023-04-25T07:29:00;13.23;;;2.17;;
23743;SDS011;12052;53.478;10.182;2023-04-25T07:31:25;28.63;;;2.38;;
23743;SDS011;12052;53.478;10.182;2023-04-25T07:33:52;10.88;;;2.42;;
23743;SDS011;12052;53.478;10.182;2023-04-25T07:36:18;14.75;;;2.72;;
23743;SDS011;12052;53.478;10.182;2023-04-25T07:38:43;11.00;;;1.75;;
23743;SDS011;12052;53.478;10.182;2023-04-25T07:41:09;10.23;;;2.33;;
23743;SDS011;12052;53.478;10.182;2023-04-25T07:43:34;8.38;;;1.80;;
23743;SDS011;12052;53.478;10.182;2023-04-25T07:46:00;14.45;;;2.13;;
23743;SDS011;12052;53.478;10.182;2023-04-25T07:48:27;10.27;;;2.55;;
23743;SDS011;12052;53.478;10.182;2023-04-25T07:50:53;10.85;;;2.03;;
23743;SDS011;12052;53.478;10.182;2023-04-25T07:53:18;9.35;;;2.22;;
23743;SDS011;12052;53.478;10.182;2023-04-25T07:55:44;11.40;;;2.35;;
23743;SDS011;12052;53.478;10.182;2023-04-25T07:58:10;12.43;;;2.10;;
23743;SDS011;12052;53.478;10.182;2023-04-25T08:00:36;17.00;;;2.55;;
23743;SDS011;12052;53.478;10.182;2023-04-25T08:03:02;11.25;;;2.42;;
23743;SDS011;12052;53.478;10.182;2023-04-25T08:05:28;16.25;;;2.17;;
23743;SDS011;12052;53.478;10.182;2023-04-25T08:07:54;9.32;;;2.63;;
23743;SDS011;12052;53.478;10.182;2023-04-25T08:10:21;14.48;;;2.22;;
23743;SDS011;12052;53.478;10.182;2023-04-25T08:12:48;9.68;;;1.65;;
23743;SDS011;12052;53.478;10.182;2023-04-25T08:15:14;11.88;;;2.00;;
23743;SDS011;12052;53.478;10.182;2023-04-25T08:17:39;17.05;;;2.95;;
23743;SDS011;12052;53.478;10.182;2023-04-25T08:20:06;12.45;;;1.85;;
23743;SDS011;12052;53.478;10.182;2023-04-25T08:22:31;16.48;;;2.30;;
23743;SDS011;12052;53.478;10.182;2023-04-25T08:24:57;12.63;;;2.35;;
23743;SDS011;12052;53.478;10.182;2023-04-25T08:27:23;7.47;;;1.45;;
23743;SDS011;12052;53.478;10.182;2023-04-25T08:29:48;14.75;;;2.13;;
23743;SDS011;12052;53.478;10.182;2023-04-25T08:32:15;7.55;;;1.83;;
23743;SDS011;12052;53.478;10.182;2023-04-25T08:34:41;8.68;;;1.67;;
23743;SDS011;12052;53.478;10.182;2023-04-25T08:37:08;10.48;;;2.08;;
23743;SDS011;12052;53.478;10.182;2023-04-25T08:39:35;13.98;;;1.73;;
23743;SDS011;12052;53.478;10.182;2023-04-25T08:42:01;5.50;;;1.27;;
23743;SDS011;12052;53.478;10.182;2023-04-25T08:44:32;10.48;;;1.60;;
23743;SDS011;12052;53.478;10.182;2023-04-25T08:46:59;10.07;;;2.08;;
23743;SDS011;12052;53.478;10.182;2023-04-25T08:49:25;7.63;;;1.55;;
23743;SDS011;12052;53.478;10.182;2023-04-25T08:51:51;9.52;;;1.60;;
23743;SDS011;12052;53.478;10.182;2023-04-25T08:54:19;17.42;;;2.17;;
23743;SDS011;12052;53.478;10.182;2023-04-25T08:56:48;8.48;;;1.33;;
23743;SDS011;12052;53.478;10.182;2023-04-25T08:59:14;9.90;;;1.83;;
23743;SDS011;12052;53.478;10.182;2023-04-25T09:01:40;7.07;;;1.33;;
23743;SDS011;12052;53.478;10.182;2023-04-25T09:04:06;9.00;;;1.50;;
23743;SDS011;12052;53.478;10.182;2023-04-25T09:06:31;9.05;;;1.55;;
23743;SDS011;12052;53.478;10.182;2023-04-25T09:09:02;11.77;;;2.00;;
23743;SDS011;12052;53.478;10.182;2023-04-25T09:11:30;8.68;;;1.40;;
23743;SDS011;12052;53.478;10.182;2023-04-25T09:14:12;5.18;;;1.50;;
23743;SDS011;12052;53.478;10.182;2023-04-25T09:19:28;10.27;;;1.60;;
23743;SDS011;12052;53.478;10.182;2023-04-25T09:21:59;8.70;;;1.20;;
23743;SDS011;12052;53.478;10.182;2023-04-25T09:24:36;6.43;;;1.00;;
23743;SDS011;12052;53.478;10.182;2023-04-25T09:27:11;3.63;;;1.07;;
23743;SDS011;12052;53.478;10.182;2023-04-25T09:29:42;4.78;;;1.15;;
23743;SDS011;12052;53.478;10.182;2023-04-25T09:34:54;3.38;;;1.10;;
23743;SDS011;12052;53.478;10.182;2023-04-25T09:37:28;3.03;;;1.00;;
23743;SDS011;12052;53.478;10.182;2023-04-25T09:42:27;3.90;;;1.35;;
23743;SDS011;12052;53.478;10.182;2023-04-25T09:44:54;8.15;;;1.27;;
23743;SDS011;12052;53.478;10.182;2023-04-25T09:47:22;11.70;;;1.13;;
23743;SDS011;12052;53.478;10.182;2023-04-25T09:49:49;7.55;;;1.63;;
23743;SDS011;12052;53.478;10.182;2023-04-25T09:52:17;8.65;;;1.40;;
23743;SDS011;12052;53.478;10.182;2023-04-25T09:54:44;6.45;;;1.17;;
23743;SDS011;12052;53.478;10.182;2023-04-25T09:57:15;12.00;;;2.00;;
23743;SDS011;12052;53.478;10.182;2023-04-25T09:59:49;11.13;;;1.30;;
23743;SDS011;12052;53.478;10.182;2023-04-25T10:02:17;4.82;;;1.45;;
23743;SDS011;12052;53.478;10.182;2023-04-25T10:04:47;10.45;;;1.88;;
23743;SDS011;12052;53.478;10.182;2023-04-25T10:07:14;5.63;;;1.27;;
23743;SDS011;12052;53.478;10.182;2023-04-25T10:09:40;4.93;;;1.23;;
23743;SDS011;12052;53.478;10.182;2023-04-25T10:12:07;6.28;;;1.10;;
23743;SDS011;12052;53.478;10.182;2023-04-25T10:14:33;7.88;;;1.30;;
23743;SDS011;12052;53.478;10.182;2023-04-25T10:16:59;6.88;;;1.40;;
23743;SDS011;12052;53.478;10.182;2023-04-25T10:19:26;7.30;;;1.30;;
23743;SDS011;12052;53.478;10.182;2023-04-25T10:24:20;16.08;;;1.88;;
23743;SDS011;12052;53.478;10.182;2023-04-25T10:26:46;11.32;;;1.48;;
23743;SDS011;12052;53.478;10.182;2023-04-25T10:29:15;9.68;;;1.77;;
23743;SDS011;12052;53.478;10.182;2023-04-25T10:31:51;14.50;;;1.48;;
23743;SDS011;12052;53.478;10.182;2023-04-25T10:34:17;7.88;;;1.48;;
23743;SDS011;12052;53.478;10.182;2023-04-25T10:36:44;4.38;;;1.52;;
23743;SDS011;12052;53.478;10.182;2023-04-25T10:39:24;5.25;;;1.63;;
23743;SDS011;12052;53.478;10.182;2023-04-25T10:41:58;8.88;;;1.23;;
23743;SDS011;12052;53.478;10.182;2023-04-25T10:44:27;4.57;;;1.08;;
23743;SDS011;12052;53.478;10.182;2023-04-25T10:46:54;1.70;;;0.68;;
23743;SDS011;12052;53.478;10.182;2023-04-25T10:49:28;6.00;;;1.38;;
23743;SDS011;12052;53.478;10.182;2023-04-25T10:52:38;6.60;;;1.73;;
23743;SDS011;12052;53.478;10.182;2023-04-25T10:54:54;8.02;;;1.13;;
23743;SDS011;12052;53.478;10.182;2023-04-25T10:57:28;3.47;;;1.10;;
23743;SDS011;12052;53.478;10.182;2023-04-25T11:00:09;9.50;;;1.23;;
23743;SDS011;12052;53.478;10.182;2023-04-25T11:02:43;6.18;;;1.10;;
23743;SDS011;12052;53.478;10.182;2023-04-25T11:05:16;4.03;;;1.40;;
23743;SDS011;12052;53.478;10.182;2023-04-25T11:07:50;7.88;;;1.30;;
23743;SDS011;12052;53.478;10.182;2023-04-25T11:10:24;11.60;;;1.65;;
23743;SDS011;12052;53.478;10.182;2023-04-25T11:12:51;5.97;;;0.95;;
23743;SDS011;12052;53.478;10.182;2023-04-25T11:15:17;4.03;;;1.13;;
23743;SDS011;12052;53.478;10.182;2023-04-25T11:17:42;8.18;;;1.52;;
23743;SDS011;12052;53.478;10.182;2023-04-25T11:20:11;6.20;;;1.20;;
23743;SDS011;12052;53.478;10.182;2023-04-25T11:22:38;11.00;;;1.35;;
23743;SDS011;12052;53.478;10.182;2023-04-25T11:25:08;8.38;;;1.45;;
23743;SDS011;12052;53.478;10.182;2023-04-25T11:27:37;5.78;;;1.52;;
23743;SDS011;12052;53.478;10.182;2023-04-25T11:30:09;7.32;;;1.05;;
23743;SDS011;12052;53.478;10.182;2023-04-25T11:32:36;8.52;;;1.50;;
23743;SDS011;12052;53.478;10.182;2023-04-25T11:35:02;4.78;;;1.30;;
23743;SDS011;12052;53.478;10.182;2023-04-25T11:37:28;5.43;;;1.00;;
23743;SDS011;12052;53.478;10.182;2023-04-25T11:39:53;11.90;;;1.80;;
23743;SDS011;12052;53.478;10.182;2023-04-25T11:42:19;8.20;;;1.60;;
23743;SDS011;12052;53.478;10.182;2023-04-25T11:44:45;10.68;;;1.58;;
23743;SDS011;12052;53.478;10.182;2023-04-25T11:47:11;7.10;;;1.02;;
23743;SDS011;12052;53.478;10.182;2023-04-25T11:49:36;6.15;;;1.27;;
23743;SDS011;12052;53.478;10.182;2023-04-25T11:52:02;6.28;;;1.25;;
23743;SDS011;12052;53.478;10.182;2023-04-25T11:54:28;3.92;;;1.02;;
23743;SDS011;12052;53.478;10.182;2023-04-25T11:56:53;6.57;;;1.10;;
23743;SDS011;12052;53.478;10.182;2023-04-25T11:59:22;4.93;;;0.90;;
23743;SDS011;12052;53.478;10.182;2023-04-25T12:01:49;2.40;;;0.70;;
23743;SDS011;12052;53.478;10.182;2023-04-25T12:04:16;1.58;;;0.75;;
23743;SDS011;12052;53.478;10.182;2023-04-25T12:06:46;2.13;;;0.50;;
23743;SDS011;12052;53.478;10.182;2023-04-25T12:09:17;1.60;;;0.65;;
23743;SDS011;12052;53.478;10.182;2023-04-25T12:11:52;7.97;;;1.23;;
23743;SDS011;12052;53.478;10.182;2023-04-25T12:14:23;3.88;;;0.98;;
23743;SDS011;12052;53.478;10.182;2023-04-25T12:16:57;2.08;;;0.90;;
23743;SDS011;12052;53.478;10.182;2023-04-25T12:19:31;4.13;;;1.20;;
23743;SDS011;12052;53.478;10.182;2023-04-25T12:21:58;2.25;;;0.80;;
23743;SDS011;12052;53.478;10.182;2023-04-25T12:24:26;9.43;;;1.55;;
23743;SDS011;12052;53.478;10.182;2023-04-25T12:29:26;7.82;;;0.90;;
23743;SDS011;12052;53.478;10.182;2023-04-25T12:31:54;5.13;;;0.90;;
23743;SDS011;12052;53.478;10.182;2023-04-25T12:34:21;15.63;;;1.83;;
23743;SDS011;12052;53.478;10.182;2023-04-25T12:36:48;6.30;;;1.10;;
23743;SDS011;12052;53.478;10.182;2023-04-25T12:39:18;2.55;;;0.80;;
23743;SDS011;12052;53.478;10.182;2023-04-25T12:41:46;5.05;;;0.85;;
23743;SDS011;12052;53.478;10.182;2023-04-25T12:44:12;9.90;;;0.85;;
23743;SDS011;12052;53.478;10.182;2023-04-25T12:46:38;6.65;;;1.23;;
23743;SDS011;12052;53.478;10.182;2023-04-25T12:49:05;4.03;;;1.05;;
23743;SDS011;12052;53.478;10.182;2023-04-25T12:51:32;5.13;;;1.17;;
23743;SDS011;12052;53.478;10.182;2023-04-25T12:53:58;8.77;;;1.42;;
23743;SDS011;12052;53.478;10.182;2023-04-25T12:56:27;5.60;;;1.10;;
23743;SDS011;12052;53.478;10.182;2023-04-25T12:58:53;6.28;;;1.38;;
23743;SDS011;12052;53.478;10.182;2023-04-25T13:01:20;5.22;;;1.33;;
23743;SDS011;12052;53.478;10.182;2023-04-25T13:03:46;5.28;;;1.05;;
23743;SDS011;12052;53.478;10.182;2023-04-25T13:06:12;11.00;;;1.45;;
23743;SDS011;12052;53.478;10.182;2023-04-25T13:08:38;4.95;;;1.33;;
23743;SDS011;12052;53.478;10.182;2023-04-25T13:11:04;6.47;;;1.65;;
23743;SDS011;12052;53.478;10.182;2023-04-25T13:13:30;5.95;;;1.02;;
23743;SDS011;12052;53.478;10.182;2023-04-25T13:15:57;6.60;;;1.10;;
23743;SDS011;12052;53.478;10.182;2023-04-25T13:18:23;9.45;;;1.30;;
23743;SDS011;12052;53.478;10.182;2023-04-25T13:20:52;8.18;;;1.40;;
23743;SDS011;12052;53.478;10.182;2023-04-25T13:23:18;11.55;;;1.45;;
23743;SDS011;12052;53.478;10.182;2023-04-25T13:25:45;6.78;;;1.38;;
23743;SDS011;12052;53.478;10.182;2023-04-25T13:28:10;6.57;;;1.35;;
23743;SDS011;12052;53.478;10.182;2023-04-25T13:30:36;7.32;;;1.25;;
23743;SDS011;12052;53.478;10.182;2023-04-25T13:33:02;18.83;;;1.77;;
23743;SDS011;12052;53.478;10.182;2023-04-25T13:35:28;7.50;;;1.85;;
23743;SDS011;12052;53.478;10.182;2023-04-25T13:37:55;9.55;;;1.75;;
23743;SDS011;12052;53.478;10.182;2023-04-25T13:40:21;4.68;;;1.17;;
23743;SDS011;12052;53.478;10.182;2023-04-25T13:42:46;7.72;;;1.40;;
23743;SDS011;12052;53.478;10.182;2023-04-25T13:45:13;6.05;;;1.15;;
23743;SDS011;12052;53.478;10.182;2023-04-25T13:47:38;3.75;;;1.13;;
23743;SDS011;12052;53.478;10.182;2023-04-25T13:50:04;3.65;;;1.10;;
23743;SDS011;12052;53.478;10.182;2023-04-25T13:52:32;6.32;;;1.15;;
23743;SDS011;12052;53.478;10.182;2023-04-25T13:54:57;11.80;;;1.55;;
23743;SDS011;12052;53.478;10.182;2023-04-25T13:57:23;6.28;;;1.70;;
23743;SDS011;12052;53.478;10.182;2023-04-25T13:59:49;6.60;;;1.30;;
23743;SDS011;12052;53.478;10.182;2023-04-25T14:02:15;14.25;;;1.75;;
23743;SDS011;12052;53.478;10.182;2023-04-25T14:04:41;6.68;;;1.50;;
23743;SDS011;12052;53.478;10.182;2023-04-25T14:07:07;5.80;;;1.60;;
23743;SDS011;12052;53.478;10.182;2023-04-25T14:09:33;5.38;;;1.17;;
23743;SDS011;12052;53.478;10.182;2023-04-25T14:11:59;4.43;;;0.70;;
23743;SDS011;12052;53.478;10.182;2023-04-25T14:14:25;6.03;;;1.17;;
23743;SDS011;12052;53.478;10.182;2023-04-25T14:16:51;4.88;;;1.20;;
23743;SDS011;12052;53.478;10.182;2023-04-25T14:19:18;7.22;;;1.20;;
23743;SDS011;12052;53.478;10.182;2023-04-25T14:21:45;7.68;;;1.50;;
23743;SDS011;12052;53.478;10.182;2023-04-25T14:24:11;12.27;;;1.90;;
23743;SDS011;12052;53.478;10.182;2023-04-25T14:26:38;5.05;;;1.35;;
23743;SDS011;12052;53.478;10.182;2023-04-25T14:29:04;5.75;;;1.38;;
23743;SDS011;12052;53.478;10.182;2023-04-25T14:31:31;6.05;;;1.50;;
23743;SDS011;12052;53.478;10.182;2023-04-25T14:33:57;8.20;;;1.80;;
23743;SDS011;12052;53.478;10.182;2023-04-25T14:36:22;4.20;;;1.20;;